Terminal Aerodrome Forecast
Issued by NWS Cleveland, OH

Home | Current Version | Previous Version | Graphics & Text | Print | Product List | Glossary On
Versions: 1 2 3 4 5 6 7 8 9 10 11 12 13 14 15 16 17 18 19 20 21 22 23 24 25 26 27
000
FTUS41 KCLE 252320
TAFTOL
TAF
KTOL 252320Z 2600/2624 31010KT P6SM SCT015 OVC040
     FM260200 30007KT P6SM OVC015
     FM260600 30007KT P6SM OVC008
     FM261200 29007KT P6SM BKN008 OVC035
     FM261600 29005KT P6SM SCT015 BKN035
     FM261900 25005KT P6SM BKN045=

USA.gov is the U.S. government's official web portal to all federal, state and local government web resources and services.